Disclaimer

Please do not use the information listed here in-flight or in-navigation, as they are not provided to us by the airports but are provided by volunteers, so they might be outdated.

Search


Regions


Airport information page

Radio informations:
Tower (TWR) - 118.5 MHz
MET OFFICE - 122.6 MHz
Ground (GND) - 121.7 MHz
Clearance delivery - 121.825 MHz
Automatic Terminal Information Service (ATIS) - 119.0 MHz
STOCKHOLM CON - 123.75 MHz

Airport informations:
Latitude: 59° 39' 07.00" N
Longitude: 017° 55' 07.00" E
Elevation: 137 feet - 42 meters
Operating hours: 24 hour operations
Operating agency: Civil government, landing fees and diplomatic clearance may be required
Timezone: UTC+1(+2DT) - Last Sunday in March to last Sunday in October
Fuel: Jet A1, without icing nhibitor.

100/130 MIL Spec, low lead, aviation gasoline (BLUE)

Runway information:
01R/19L - 8201 x 148 feet< - >2500 x 45 meters
01L/19R - 10830 x 148 feet< - >3301 x 45 meters
08/26 - 8202 x 148 feet< - >2500 x 45 meters

Recent METARs:
ESSA 170850Z 33009KT 9999 BKN017 M02/M04 Q0984 REDZ RESN R01L/71//63 R08/810267 R01R/SNOCLO BECMG BKN020
ESSA 170920Z 34011KT 9999 OVC018 M02/M04 Q0984 R01L/71//63 R08/810267 R01R/SNOCLO BECMG BKN020
ESSA 170950Z 31011KT 9999 FEW012 BKN022 M02/M04 Q0985 R01L/71//63 R08/810267 R01R/SNOCLO BECMG BKN020

Airport on the map: